sensor_id;sensor_type;location;lat;lon;timestamp;P1;durP1;ratioP1;P2;durP2;ratioP2
54125;SDS011;40360;52.992;6.796;2022-07-29T00:00:40;2.42;;;1.92;;
54125;SDS011;40360;52.992;6.796;2022-07-29T00:03:05;4.47;;;1.83;;
54125;SDS011;40360;52.992;6.796;2022-07-29T00:05:31;3.28;;;1.85;;
54125;SDS011;40360;52.992;6.796;2022-07-29T00:07:57;2.75;;;1.90;;
54125;SDS011;40360;52.992;6.796;2022-07-29T00:10:22;3.53;;;1.73;;
54125;SDS011;40360;52.992;6.796;2022-07-29T00:12:48;3.08;;;1.90;;
54125;SDS011;40360;52.992;6.796;2022-07-29T00:15:13;4.55;;;1.90;;
54125;SDS011;40360;52.992;6.796;2022-07-29T00:17:39;2.78;;;2.00;;
54125;SDS011;40360;52.992;6.796;2022-07-29T00:20:05;3.55;;;2.00;;
54125;SDS011;40360;52.992;6.796;2022-07-29T00:22:31;4.38;;;1.70;;
54125;SDS011;40360;52.992;6.796;2022-07-29T00:24:57;4.82;;;2.10;;
54125;SDS011;40360;52.992;6.796;2022-07-29T00:27:22;4.95;;;2.58;;
54125;SDS011;40360;52.992;6.796;2022-07-29T00:29:48;3.22;;;2.05;;
54125;SDS011;40360;52.992;6.796;2022-07-29T00:32:14;2.65;;;2.15;;
54125;SDS011;40360;52.992;6.796;2022-07-29T00:34:39;6.18;;;2.08;;
54125;SDS011;40360;52.992;6.796;2022-07-29T00:37:23;5.65;;;1.95;;
54125;SDS011;40360;52.992;6.796;2022-07-29T00:39:49;6.20;;;2.13;;
54125;SDS011;40360;52.992;6.796;2022-07-29T00:42:15;2.88;;;1.80;;
54125;SDS011;40360;52.992;6.796;2022-07-29T00:44:41;4.55;;;2.42;;
54125;SDS011;40360;52.992;6.796;2022-07-29T00:47:07;3.33;;;2.15;;
54125;SDS011;40360;52.992;6.796;2022-07-29T00:49:37;3.45;;;2.00;;
54125;SDS011;40360;52.992;6.796;2022-07-29T00:52:04;4.90;;;2.00;;
54125;SDS011;40360;52.992;6.796;2022-07-29T00:54:31;2.45;;;1.98;;
54125;SDS011;40360;52.992;6.796;2022-07-29T00:56:58;2.75;;;1.77;;
54125;SDS011;40360;52.992;6.796;2022-07-29T00:59:24;3.35;;;1.92;;
54125;SDS011;40360;52.992;6.796;2022-07-29T01:01:53;4.68;;;2.30;;
54125;SDS011;40360;52.992;6.796;2022-07-29T01:04:20;2.53;;;1.80;;
54125;SDS011;40360;52.992;6.796;2022-07-29T01:06:47;4.75;;;2.55;;
54125;SDS011;40360;52.992;6.796;2022-07-29T01:09:13;4.50;;;2.17;;
54125;SDS011;40360;52.992;6.796;2022-07-29T01:11:39;6.22;;;2.53;;
54125;SDS011;40360;52.992;6.796;2022-07-29T01:14:06;4.50;;;2.17;;
54125;SDS011;40360;52.992;6.796;2022-07-29T01:16:36;3.88;;;2.10;;
54125;SDS011;40360;52.992;6.796;2022-07-29T01:19:22;3.38;;;2.10;;
54125;SDS011;40360;52.992;6.796;2022-07-29T01:25:26;4.05;;;2.20;;
54125;SDS011;40360;52.992;6.796;2022-07-29T01:31:11;4.55;;;2.67;;
54125;SDS011;40360;52.992;6.796;2022-07-29T01:33:43;4.28;;;2.10;;
54125;SDS011;40360;52.992;6.796;2022-07-29T01:36:22;5.18;;;2.20;;
54125;SDS011;40360;52.992;6.796;2022-07-29T01:39:04;2.70;;;1.80;;
54125;SDS011;40360;52.992;6.796;2022-07-29T01:41:48;4.93;;;2.03;;
54125;SDS011;40360;52.992;6.796;2022-07-29T01:44:18;3.03;;;2.05;;
54125;SDS011;40360;52.992;6.796;2022-07-29T01:46:52;15.85;;;2.40;;
54125;SDS011;40360;52.992;6.796;2022-07-29T01:49:21;6.18;;;2.15;;
54125;SDS011;40360;52.992;6.796;2022-07-29T01:51:54;3.40;;;2.08;;
54125;SDS011;40360;52.992;6.796;2022-07-29T01:54:43;6.05;;;2.25;;
54125;SDS011;40360;52.992;6.796;2022-07-29T01:57:14;3.80;;;1.77;;
54125;SDS011;40360;52.992;6.796;2022-07-29T01:59:45;6.43;;;2.58;;
54125;SDS011;40360;52.992;6.796;2022-07-29T02:02:13;2.63;;;1.80;;
54125;SDS011;40360;52.992;6.796;2022-07-29T02:04:41;7.15;;;2.53;;
54125;SDS011;40360;52.992;6.796;2022-07-29T02:07:10;2.38;;;1.90;;
54125;SDS011;40360;52.992;6.796;2022-07-29T02:09:39;4.82;;;2.17;;
54125;SDS011;40360;52.992;6.796;2022-07-29T02:12:07;4.07;;;2.33;;
54125;SDS011;40360;52.992;6.796;2022-07-29T02:14:37;4.70;;;2.17;;
54125;SDS011;40360;52.992;6.796;2022-07-29T02:17:05;5.72;;;1.90;;
54125;SDS011;40360;52.992;6.796;2022-07-29T02:19:32;7.38;;;1.90;;
54125;SDS011;40360;52.992;6.796;2022-07-29T02:21:58;5.53;;;1.95;;
54125;SDS011;40360;52.992;6.796;2022-07-29T02:24:26;2.88;;;1.75;;
54125;SDS011;40360;52.992;6.796;2022-07-29T02:26:55;5.93;;;2.25;;
54125;SDS011;40360;52.992;6.796;2022-07-29T02:29:22;3.15;;;1.90;;
54125;SDS011;40360;52.992;6.796;2022-07-29T02:31:51;5.13;;;2.10;;
54125;SDS011;40360;52.992;6.796;2022-07-29T02:34:17;3.25;;;1.75;;
54125;SDS011;40360;52.992;6.796;2022-07-29T02:36:45;3.55;;;2.10;;
54125;SDS011;40360;52.992;6.796;2022-07-29T02:39:13;5.32;;;2.42;;
54125;SDS011;40360;52.992;6.796;2022-07-29T02:41:47;6.55;;;2.17;;
54125;SDS011;40360;52.992;6.796;2022-07-29T02:44:18;5.32;;;2.00;;
54125;SDS011;40360;52.992;6.796;2022-07-29T02:46:53;4.35;;;2.17;;
54125;SDS011;40360;52.992;6.796;2022-07-29T02:49:37;3.10;;;1.77;;
54125;SDS011;40360;52.992;6.796;2022-07-29T02:52:26;5.60;;;2.30;;
54125;SDS011;40360;52.992;6.796;2022-07-29T02:58:54;2.53;;;2.17;;
54125;SDS011;40360;52.992;6.796;2022-07-29T03:00:56;5.93;;;2.33;;
54125;SDS011;40360;52.992;6.796;2022-07-29T03:03:24;6.50;;;2.25;;
54125;SDS011;40360;52.992;6.796;2022-07-29T03:05:56;5.22;;;1.90;;
54125;SDS011;40360;52.992;6.796;2022-07-29T03:08:24;4.07;;;1.90;;
54125;SDS011;40360;52.992;6.796;2022-07-29T03:10:52;4.35;;;2.10;;
54125;SDS011;40360;52.992;6.796;2022-07-29T03:13:19;4.68;;;2.13;;
54125;SDS011;40360;52.992;6.796;2022-07-29T03:15:46;6.63;;;2.63;;
54125;SDS011;40360;52.992;6.796;2022-07-29T03:18:12;4.43;;;1.80;;
54125;SDS011;40360;52.992;6.796;2022-07-29T03:20:39;6.03;;;2.35;;
54125;SDS011;40360;52.992;6.796;2022-07-29T03:23:05;4.07;;;2.15;;
54125;SDS011;40360;52.992;6.796;2022-07-29T03:25:32;4.50;;;2.20;;
54125;SDS011;40360;52.992;6.796;2022-07-29T03:27:58;3.08;;;1.85;;
54125;SDS011;40360;52.992;6.796;2022-07-29T03:30:24;5.75;;;2.10;;
54125;SDS011;40360;52.992;6.796;2022-07-29T03:32:50;4.75;;;2.00;;
54125;SDS011;40360;52.992;6.796;2022-07-29T03:35:16;2.45;;;1.80;;
54125;SDS011;40360;52.992;6.796;2022-07-29T03:37:42;4.68;;;2.05;;
54125;SDS011;40360;52.992;6.796;2022-07-29T03:40:09;4.30;;;2.10;;
54125;SDS011;40360;52.992;6.796;2022-07-29T03:42:39;7.15;;;2.65;;
54125;SDS011;40360;52.992;6.796;2022-07-29T03:45:09;10.35;;;2.88;;
54125;SDS011;40360;52.992;6.796;2022-07-29T03:47:39;5.53;;;2.40;;
54125;SDS011;40360;52.992;6.796;2022-07-29T03:50:08;6.20;;;2.10;;
54125;SDS011;40360;52.992;6.796;2022-07-29T03:52:38;6.95;;;2.47;;
54125;SDS011;40360;52.992;6.796;2022-07-29T03:55:04;7.88;;;2.25;;
54125;SDS011;40360;52.992;6.796;2022-07-29T03:57:30;5.85;;;2.22;;
54125;SDS011;40360;52.992;6.796;2022-07-29T03:59:58;4.03;;;2.33;;
54125;SDS011;40360;52.992;6.796;2022-07-29T04:02:24;5.55;;;1.98;;
54125;SDS011;40360;52.992;6.796;2022-07-29T04:04:50;4.70;;;2.08;;
54125;SDS011;40360;52.992;6.796;2022-07-29T04:07:16;4.82;;;2.08;;
54125;SDS011;40360;52.992;6.796;2022-07-29T04:09:42;3.30;;;2.15;;
54125;SDS011;40360;52.992;6.796;2022-07-29T04:12:08;3.08;;;1.90;;
54125;SDS011;40360;52.992;6.796;2022-07-29T04:14:34;4.38;;;2.15;;
54125;SDS011;40360;52.992;6.796;2022-07-29T04:17:00;5.70;;;2.42;;
54125;SDS011;40360;52.992;6.796;2022-07-29T04:19:27;3.85;;;2.20;;
54125;SDS011;40360;52.992;6.796;2022-07-29T04:21:52;3.75;;;2.35;;
54125;SDS011;40360;52.992;6.796;2022-07-29T04:24:18;3.90;;;2.00;;
54125;SDS011;40360;52.992;6.796;2022-07-29T04:26:45;6.57;;;2.65;;
54125;SDS011;40360;52.992;6.796;2022-07-29T04:29:11;3.55;;;2.25;;
54125;SDS011;40360;52.992;6.796;2022-07-29T04:31:39;3.88;;;2.17;;
54125;SDS011;40360;52.992;6.796;2022-07-29T04:34:05;4.53;;;2.53;;
54125;SDS011;40360;52.992;6.796;2022-07-29T04:36:30;4.90;;;2.78;;
54125;SDS011;40360;52.992;6.796;2022-07-29T04:38:56;4.85;;;2.25;;
54125;SDS011;40360;52.992;6.796;2022-07-29T04:41:21;6.25;;;3.17;;
54125;SDS011;40360;52.992;6.796;2022-07-29T04:43:47;3.33;;;2.72;;
54125;SDS011;40360;52.992;6.796;2022-07-29T04:46:12;5.75;;;2.22;;
54125;SDS011;40360;52.992;6.796;2022-07-29T04:48:38;5.93;;;3.13;;
54125;SDS011;40360;52.992;6.796;2022-07-29T04:51:04;5.20;;;2.22;;
54125;SDS011;40360;52.992;6.796;2022-07-29T04:53:29;4.85;;;2.42;;
54125;SDS011;40360;52.992;6.796;2022-07-29T04:55:55;6.15;;;2.33;;
54125;SDS011;40360;52.992;6.796;2022-07-29T04:58:20;5.70;;;2.35;;
54125;SDS011;40360;52.992;6.796;2022-07-29T05:00:48;4.57;;;2.08;;
54125;SDS011;40360;52.992;6.796;2022-07-29T05:21:42;3.75;;;2.20;;
54125;SDS011;40360;52.992;6.796;2022-07-29T05:24:09;6.72;;;2.33;;
54125;SDS011;40360;52.992;6.796;2022-07-29T05:26:35;4.10;;;2.65;;
54125;SDS011;40360;52.992;6.796;2022-07-29T05:29:00;4.78;;;2.15;;
54125;SDS011;40360;52.992;6.796;2022-07-29T05:31:26;3.33;;;2.30;;
54125;SDS011;40360;52.992;6.796;2022-07-29T05:33:52;7.75;;;3.47;;
54125;SDS011;40360;52.992;6.796;2022-07-29T05:36:17;14.00;;;2.97;;
54125;SDS011;40360;52.992;6.796;2022-07-29T05:38:43;3.25;;;2.50;;
54125;SDS011;40360;52.992;6.796;2022-07-29T05:41:09;3.58;;;2.50;;
54125;SDS011;40360;52.992;6.796;2022-07-29T05:43:35;5.97;;;3.53;;
54125;SDS011;40360;52.992;6.796;2022-07-29T05:46:01;5.13;;;2.83;;
54125;SDS011;40360;52.992;6.796;2022-07-29T05:48:27;3.70;;;2.40;;
54125;SDS011;40360;52.992;6.796;2022-07-29T05:50:52;6.25;;;2.97;;
54125;SDS011;40360;52.992;6.796;2022-07-29T05:53:19;4.78;;;2.25;;
54125;SDS011;40360;52.992;6.796;2022-07-29T05:55:45;5.15;;;2.63;;
54125;SDS011;40360;52.992;6.796;2022-07-29T05:58:10;4.95;;;3.08;;
54125;SDS011;40360;52.992;6.796;2022-07-29T06:00:36;6.78;;;2.50;;
54125;SDS011;40360;52.992;6.796;2022-07-29T06:03:01;4.78;;;2.28;;
54125;SDS011;40360;52.992;6.796;2022-07-29T06:05:27;9.07;;;2.17;;
54125;SDS011;40360;52.992;6.796;2022-07-29T06:07:53;5.38;;;2.40;;
54125;SDS011;40360;52.992;6.796;2022-07-29T06:10:18;3.90;;;2.08;;
54125;SDS011;40360;52.992;6.796;2022-07-29T06:12:44;4.28;;;2.17;;
54125;SDS011;40360;52.992;6.796;2022-07-29T06:15:10;6.18;;;2.97;;
54125;SDS011;40360;52.992;6.796;2022-07-29T06:17:35;3.80;;;2.80;;
54125;SDS011;40360;52.992;6.796;2022-07-29T06:20:01;4.95;;;2.45;;
54125;SDS011;40360;52.992;6.796;2022-07-29T06:22:28;4.47;;;2.30;;
54125;SDS011;40360;52.992;6.796;2022-07-29T06:24:53;5.70;;;2.45;;
54125;SDS011;40360;52.992;6.796;2022-07-29T06:27:19;5.75;;;2.80;;
54125;SDS011;40360;52.992;6.796;2022-07-29T06:29:45;2.40;;;2.08;;
54125;SDS011;40360;52.992;6.796;2022-07-29T06:32:10;4.25;;;2.33;;
54125;SDS011;40360;52.992;6.796;2022-07-29T06:34:36;4.40;;;2.25;;
54125;SDS011;40360;52.992;6.796;2022-07-29T06:37:05;6.10;;;2.70;;
54125;SDS011;40360;52.992;6.796;2022-07-29T06:39:33;4.38;;;2.30;;
54125;SDS011;40360;52.992;6.796;2022-07-29T06:42:05;4.35;;;2.40;;
54125;SDS011;40360;52.992;6.796;2022-07-29T06:44:31;4.70;;;2.50;;
54125;SDS011;40360;52.992;6.796;2022-07-29T06:46:59;8.60;;;2.45;;
54125;SDS011;40360;52.992;6.796;2022-07-29T06:49:24;4.10;;;2.28;;
54125;SDS011;40360;52.992;6.796;2022-07-29T06:51:51;3.17;;;2.00;;
54125;SDS011;40360;52.992;6.796;2022-07-29T06:54:17;6.03;;;2.80;;
54125;SDS011;40360;52.992;6.796;2022-07-29T06:56:43;3.90;;;2.20;;
54125;SDS011;40360;52.992;6.796;2022-07-29T06:59:09;5.72;;;2.72;;
54125;SDS011;40360;52.992;6.796;2022-07-29T07:01:36;4.38;;;1.98;;
54125;SDS011;40360;52.992;6.796;2022-07-29T07:04:06;5.63;;;2.15;;
54125;SDS011;40360;52.992;6.796;2022-07-29T07:06:33;7.47;;;2.65;;
54125;SDS011;40360;52.992;6.796;2022-07-29T07:08:59;2.88;;;1.95;;
54125;SDS011;40360;52.992;6.796;2022-07-29T07:11:25;4.70;;;2.30;;
54125;SDS011;40360;52.992;6.796;2022-07-29T07:13:51;7.68;;;2.60;;
54125;SDS011;40360;52.992;6.796;2022-07-29T07:16:17;5.53;;;3.10;;
54125;SDS011;40360;52.992;6.796;2022-07-29T07:18:42;9.35;;;2.25;;
54125;SDS011;40360;52.992;6.796;2022-07-29T07:21:10;7.30;;;2.42;;
54125;SDS011;40360;52.992;6.796;2022-07-29T07:23:35;8.52;;;2.20;;
54125;SDS011;40360;52.992;6.796;2022-07-29T07:26:01;3.40;;;2.15;;
54125;SDS011;40360;52.992;6.796;2022-07-29T07:28:28;4.43;;;2.28;;
54125;SDS011;40360;52.992;6.796;2022-07-29T07:30:53;5.68;;;2.30;;
54125;SDS011;40360;52.992;6.796;2022-07-29T07:33:19;3.00;;;2.08;;
54125;SDS011;40360;52.992;6.796;2022-07-29T07:35:45;6.13;;;2.53;;
54125;SDS011;40360;52.992;6.796;2022-07-29T07:38:11;7.30;;;2.15;;
54125;SDS011;40360;52.992;6.796;2022-07-29T07:40:37;4.82;;;2.53;;
54125;SDS011;40360;52.992;6.796;2022-07-29T07:43:02;6.63;;;3.15;;
54125;SDS011;40360;52.992;6.796;2022-07-29T07:45:28;4.13;;;2.10;;
54125;SDS011;40360;52.992;6.796;2022-07-29T07:47:54;6.55;;;2.40;;
54125;SDS011;40360;52.992;6.796;2022-07-29T07:50:19;7.32;;;2.88;;
54125;SDS011;40360;52.992;6.796;2022-07-29T07:52:45;4.97;;;2.40;;
54125;SDS011;40360;52.992;6.796;2022-07-29T07:55:13;6.07;;;2.92;;
54125;SDS011;40360;52.992;6.796;2022-07-29T07:57:39;8.10;;;3.33;;
54125;SDS011;40360;52.992;6.796;2022-07-29T08:00:04;6.22;;;2.72;;
54125;SDS011;40360;52.992;6.796;2022-07-29T08:02:31;12.88;;;2.63;;
54125;SDS011;40360;52.992;6.796;2022-07-29T08:04:56;4.47;;;2.63;;
54125;SDS011;40360;52.992;6.796;2022-07-29T08:07:22;7.05;;;2.58;;
54125;SDS011;40360;52.992;6.796;2022-07-29T08:09:48;4.18;;;2.08;;
54125;SDS011;40360;52.992;6.796;2022-07-29T08:12:13;3.70;;;2.28;;
54125;SDS011;40360;52.992;6.796;2022-07-29T08:14:39;3.92;;;2.03;;
54125;SDS011;40360;52.992;6.796;2022-07-29T08:17:04;6.07;;;2.55;;
54125;SDS011;40360;52.992;6.796;2022-07-29T08:19:30;5.50;;;2.30;;
54125;SDS011;40360;52.992;6.796;2022-07-29T08:21:56;6.93;;;2.72;;
54125;SDS011;40360;52.992;6.796;2022-07-29T08:24:21;7.28;;;3.88;;
54125;SDS011;40360;52.992;6.796;2022-07-29T08:27:06;7.45;;;3.05;;
54125;SDS011;40360;52.992;6.796;2022-07-29T08:29:32;8.15;;;2.78;;
54125;SDS011;40360;52.992;6.796;2022-07-29T08:31:57;5.38;;;2.45;;
54125;SDS011;40360;52.992;6.796;2022-07-29T08:34:23;7.80;;;2.63;;
54125;SDS011;40360;52.992;6.796;2022-07-29T08:36:49;5.75;;;2.30;;
54125;SDS011;40360;52.992;6.796;2022-07-29T08:39:14;3.35;;;2.50;;
54125;SDS011;40360;52.992;6.796;2022-07-29T08:41:40;6.80;;;2.85;;
54125;SDS011;40360;52.992;6.796;2022-07-29T08:44:05;3.80;;;2.38;;
54125;SDS011;40360;52.992;6.796;2022-07-29T08:46:31;4.28;;;2.03;;
54125;SDS011;40360;52.992;6.796;2022-07-29T08:48:57;6.88;;;2.65;;
54125;SDS011;40360;52.992;6.796;2022-07-29T08:51:22;6.15;;;2.20;;
54125;SDS011;40360;52.992;6.796;2022-07-29T08:53:50;5.50;;;2.55;;
54125;SDS011;40360;52.992;6.796;2022-07-29T08:56:16;8.32;;;2.65;;
54125;SDS011;40360;52.992;6.796;2022-07-29T08:58:43;5.03;;;2.55;;
54125;SDS011;40360;52.992;6.796;2022-07-29T09:01:10;5.00;;;2.67;;
54125;SDS011;40360;52.992;6.796;2022-07-29T09:03:39;8.32;;;2.92;;
54125;SDS011;40360;52.992;6.796;2022-07-29T09:06:05;5.05;;;2.30;;
54125;SDS011;40360;52.992;6.796;2022-07-29T09:08:31;4.70;;;2.30;;
54125;SDS011;40360;52.992;6.796;2022-07-29T09:10:57;5.82;;;2.60;;
54125;SDS011;40360;52.992;6.796;2022-07-29T09:13:25;6.50;;;3.20;;
54125;SDS011;40360;52.992;6.796;2022-07-29T09:15:51;5.07;;;2.15;;
54125;SDS011;40360;52.992;6.796;2022-07-29T09:21:03;6.60;;;2.95;;
54125;SDS011;40360;52.992;6.796;2022-07-29T09:24:09;6.63;;;3.25;;
54125;SDS011;40360;52.992;6.796;2022-07-29T09:26:37;8.10;;;2.92;;
54125;SDS011;40360;52.992;6.796;2022-07-29T09:29:23;8.52;;;3.05;;
54125;SDS011;40360;52.992;6.796;2022-07-29T09:31:50;5.88;;;2.80;;
54125;SDS011;40360;52.992;6.796;2022-07-29T09:34:24;4.72;;;2.47;;
54125;SDS011;40360;52.992;6.796;2022-07-29T09:36:51;5.82;;;2.92;;
54125;SDS011;40360;52.992;6.796;2022-07-29T09:39:37;8.82;;;3.03;;
54125;SDS011;40360;52.992;6.796;2022-07-29T09:42:10;5.15;;;3.50;;
54125;SDS011;40360;52.992;6.796;2022-07-29T09:44:41;9.20;;;3.17;;
54125;SDS011;40360;52.992;6.796;2022-07-29T09:47:07;5.43;;;2.67;;
54125;SDS011;40360;52.992;6.796;2022-07-29T09:49:52;7.78;;;2.85;;
54125;SDS011;40360;52.992;6.796;2022-07-29T09:52:20;6.93;;;3.17;;
54125;SDS011;40360;52.992;6.796;2022-07-29T09:54:46;4.47;;;3.00;;
54125;SDS011;40360;52.992;6.796;2022-07-29T09:57:22;4.50;;;2.72;;
54125;SDS011;40360;52.992;6.796;2022-07-29T10:02:32;5.72;;;3.00;;
54125;SDS011;40360;52.992;6.796;2022-07-29T10:04:59;8.80;;;3.13;;
54125;SDS011;40360;52.992;6.796;2022-07-29T10:07:42;8.35;;;3.28;;
54125;SDS011;40360;52.992;6.796;2022-07-29T10:10:09;6.25;;;2.97;;
54125;SDS011;40360;52.992;6.796;2022-07-29T10:12:35;7.05;;;2.92;;
54125;SDS011;40360;52.992;6.796;2022-07-29T10:15:16;9.65;;;3.25;;
54125;SDS011;40360;52.992;6.796;2022-07-29T10:17:42;8.00;;;3.00;;
54125;SDS011;40360;52.992;6.796;2022-07-29T10:20:08;6.55;;;3.13;;
54125;SDS011;40360;52.992;6.796;2022-07-29T10:22:34;7.18;;;2.95;;
54125;SDS011;40360;52.992;6.796;2022-07-29T10:25:00;10.90;;;3.22;;
54125;SDS011;40360;52.992;6.796;2022-07-29T10:27:26;6.45;;;3.42;;
54125;SDS011;40360;52.992;6.796;2022-07-29T10:29:53;6.22;;;3.38;;
54125;SDS011;40360;52.992;6.796;2022-07-29T10:32:27;7.57;;;3.90;;
54125;SDS011;40360;52.992;6.796;2022-07-29T10:35:06;5.38;;;2.80;;
54125;SDS011;40360;52.992;6.796;2022-07-29T10:37:52;7.18;;;3.03;;
54125;SDS011;40360;52.992;6.796;2022-07-29T10:43:32;6.40;;;3.20;;
54125;SDS011;40360;52.992;6.796;2022-07-29T10:46:01;9.50;;;3.75;;
54125;SDS011;40360;52.992;6.796;2022-07-29T10:48:28;4.75;;;3.22;;
54125;SDS011;40360;52.992;6.796;2022-07-29T10:50:55;7.70;;;3.30;;
54125;SDS011;40360;52.992;6.796;2022-07-29T10:53:48;7.03;;;2.90;;
54125;SDS011;40360;52.992;6.796;2022-07-29T11:01:51;6.10;;;2.80;;
54125;SDS011;40360;52.992;6.796;2022-07-29T11:04:58;7.03;;;3.50;;
54125;SDS011;40360;52.992;6.796;2022-07-29T11:07:10;8.40;;;3.83;;
54125;SDS011;40360;52.992;6.796;2022-07-29T11:09:37;7.18;;;3.00;;
54125;SDS011;40360;52.992;6.796;2022-07-29T11:12:03;5.90;;;3.65;;
54125;SDS011;40360;52.992;6.796;2022-07-29T11:14:59;6.95;;;3.20;;
54125;SDS011;40360;52.992;6.796;2022-07-29T11:17:26;6.53;;;3.67;;
54125;SDS011;40360;52.992;6.796;2022-07-29T11:20:30;4.95;;;3.40;;
54125;SDS011;40360;52.992;6.796;2022-07-29T11:22:58;6.35;;;3.28;;
54125;SDS011;40360;52.992;6.796;2022-07-29T11:25:24;6.20;;;3.42;;
54125;SDS011;40360;52.992;6.796;2022-07-29T11:27:51;8.02;;;3.40;;
54125;SDS011;40360;52.992;6.796;2022-07-29T11:30:19;5.63;;;3.03;;
54125;SDS011;40360;52.992;6.796;2022-07-29T11:32:45;5.68;;;3.30;;
54125;SDS011;40360;52.992;6.796;2022-07-29T11:41:18;6.68;;;3.47;;
54125;SDS011;40360;52.992;6.796;2022-07-29T11:43:51;8.20;;;3.33;;
54125;SDS011;40360;52.992;6.796;2022-07-29T11:49:18;6.28;;;3.25;;
54125;SDS011;40360;52.992;6.796;2022-07-29T11:51:52;7.45;;;3.55;;
54125;SDS011;40360;52.992;6.796;2022-07-29T11:54:25;5.78;;;2.88;;
54125;SDS011;40360;52.992;6.796;2022-07-29T11:56:55;6.38;;;3.65;;
54125;SDS011;40360;52.992;6.796;2022-07-29T11:59:22;6.15;;;2.90;;
54125;SDS011;40360;52.992;6.796;2022-07-29T12:01:53;7.60;;;3.50;;
54125;SDS011;40360;52.992;6.796;2022-07-29T12:04:19;11.27;;;3.45;;
54125;SDS011;40360;52.992;6.796;2022-07-29T12:06:49;6.60;;;3.25;;
54125;SDS011;40360;52.992;6.796;2022-07-29T12:09:19;8.35;;;3.88;;
54125;SDS011;40360;52.992;6.796;2022-07-29T12:11:46;5.55;;;3.00;;
54125;SDS011;40360;52.992;6.796;2022-07-29T12:16:54;7.80;;;3.10;;
54125;SDS011;40360;52.992;6.796;2022-07-29T12:19:20;7.65;;;3.58;;
54125;SDS011;40360;52.992;6.796;2022-07-29T12:21:46;6.68;;;2.88;;
54125;SDS011;40360;52.992;6.796;2022-07-29T12:24:23;8.20;;;3.40;;
54125;SDS011;40360;52.992;6.796;2022-07-29T12:26:49;4.78;;;3.00;;
54125;SDS011;40360;52.992;6.796;2022-07-29T12:29:19;5.38;;;3.25;;
54125;SDS011;40360;52.992;6.796;2022-07-29T12:31:45;5.68;;;3.22;;
54125;SDS011;40360;52.992;6.796;2022-07-29T12:34:12;5.40;;;3.15;;
54125;SDS011;40360;52.992;6.796;2022-07-29T12:36:40;9.63;;;3.88;;
54125;SDS011;40360;52.992;6.796;2022-07-29T12:39:07;11.35;;;4.65;;
54125;SDS011;40360;52.992;6.796;2022-07-29T12:41:34;8.05;;;3.10;;
54125;SDS011;40360;52.992;6.796;2022-07-29T12:44:00;8.43;;;3.58;;
54125;SDS011;40360;52.992;6.796;2022-07-29T12:46:26;6.57;;;3.53;;
54125;SDS011;40360;52.992;6.796;2022-07-29T12:48:52;8.45;;;3.28;;
54125;SDS011;40360;52.992;6.796;2022-07-29T12:51:33;8.95;;;3.63;;
54125;SDS011;40360;52.992;6.796;2022-07-29T12:56:32;6.35;;;3.70;;
54125;SDS011;40360;52.992;6.796;2022-07-29T12:58:58;5.82;;;3.45;;
54125;SDS011;40360;52.992;6.796;2022-07-29T13:01:24;5.68;;;3.85;;
54125;SDS011;40360;52.992;6.796;2022-07-29T13:06:41;6.07;;;2.70;;
54125;SDS011;40360;52.992;6.796;2022-07-29T13:09:09;5.78;;;3.40;;
54125;SDS011;40360;52.992;6.796;2022-07-29T13:14:07;6.18;;;2.97;;
54125;SDS011;40360;52.992;6.796;2022-07-29T13:16:34;6.22;;;3.60;;
54125;SDS011;40360;52.992;6.796;2022-07-29T13:19:04;5.88;;;2.33;;
54125;SDS011;40360;52.992;6.796;2022-07-29T13:21:39;8.00;;;3.30;;
54125;SDS011;40360;52.992;6.796;2022-07-29T13:24:05;9.35;;;2.70;;
54125;SDS011;40360;52.992;6.796;2022-07-29T13:26:32;8.30;;;3.05;;
54125;SDS011;40360;52.992;6.796;2022-07-29T13:28:57;7.18;;;3.85;;
54125;SDS011;40360;52.992;6.796;2022-07-29T13:31:23;9.63;;;3.67;;
54125;SDS011;40360;52.992;6.796;2022-07-29T13:33:49;5.55;;;3.03;;
54125;SDS011;40360;52.992;6.796;2022-07-29T13:36:14;7.70;;;3.15;;
54125;SDS011;40360;52.992;6.796;2022-07-29T13:38:40;3.97;;;2.42;;
54125;SDS011;40360;52.992;6.796;2022-07-29T13:41:06;4.90;;;2.70;;
54125;SDS011;40360;52.992;6.796;2022-07-29T13:43:31;4.10;;;2.63;;
54125;SDS011;40360;52.992;6.796;2022-07-29T13:45:57;5.32;;;2.63;;
54125;SDS011;40360;52.992;6.796;2022-07-29T13:48:22;6.53;;;2.55;;
54125;SDS011;40360;52.992;6.796;2022-07-29T13:50:48;5.15;;;2.58;;
54125;SDS011;40360;52.992;6.796;2022-07-29T13:53:14;7.88;;;2.15;;
54125;SDS011;40360;52.992;6.796;2022-07-29T13:55:39;7.50;;;2.35;;
54125;SDS011;40360;52.992;6.796;2022-07-29T13:58:05;6.70;;;2.65;;
54125;SDS011;40360;52.992;6.796;2022-07-29T14:00:30;6.78;;;3.13;;
54125;SDS011;40360;52.992;6.796;2022-07-29T14:02:56;7.05;;;3.25;;
54125;SDS011;40360;52.992;6.796;2022-07-29T14:05:22;4.25;;;2.58;;
54125;SDS011;40360;52.992;6.796;2022-07-29T14:07:48;8.50;;;2.75;;
54125;SDS011;40360;52.992;6.796;2022-07-29T14:10:14;6.15;;;3.00;;
54125;SDS011;40360;52.992;6.796;2022-07-29T14:12:39;6.10;;;2.78;;
54125;SDS011;40360;52.992;6.796;2022-07-29T14:15:06;7.45;;;2.60;;
54125;SDS011;40360;52.992;6.796;2022-07-29T14:17:32;5.18;;;2.85;;
54125;SDS011;40360;52.992;6.796;2022-07-29T14:19:59;4.45;;;2.42;;
54125;SDS011;40360;52.992;6.796;2022-07-29T14:22:24;7.10;;;2.38;;
54125;SDS011;40360;52.992;6.796;2022-07-29T14:24:50;6.93;;;3.05;;
54125;SDS011;40360;52.992;6.796;2022-07-29T14:27:19;5.80;;;2.42;;
54125;SDS011;40360;52.992;6.796;2022-07-29T14:29:44;10.63;;;3.20;;
54125;SDS011;40360;52.992;6.796;2022-07-29T14:32:10;3.08;;;2.22;;
54125;SDS011;40360;52.992;6.796;2022-07-29T14:34:36;11.32;;;2.97;;
54125;SDS011;40360;52.992;6.796;2022-07-29T14:37:03;7.40;;;2.58;;
54125;SDS011;40360;52.992;6.796;2022-07-29T14:39:30;6.25;;;2.22;;
54125;SDS011;40360;52.992;6.796;2022-07-29T14:41:56;5.15;;;2.47;;
54125;SDS011;40360;52.992;6.796;2022-07-29T14:44:22;8.65;;;3.05;;
54125;SDS011;40360;52.992;6.796;2022-07-29T14:46:49;5.10;;;2.75;;
54125;SDS011;40360;52.992;6.796;2022-07-29T14:49:14;8.27;;;2.53;;
54125;SDS011;40360;52.992;6.796;2022-07-29T14:51:40;7.10;;;2.20;;
54125;SDS011;40360;52.992;6.796;2022-07-29T14:54:06;6.00;;;3.03;;
54125;SDS011;40360;52.992;6.796;2022-07-29T14:56:32;7.68;;;2.72;;
54125;SDS011;40360;52.992;6.796;2022-07-29T14:58:58;5.35;;;2.55;;
54125;SDS011;40360;52.992;6.796;2022-07-29T15:01:24;7.18;;;2.75;;
54125;SDS011;40360;52.992;6.796;2022-07-29T15:03:49;5.75;;;2.38;;
54125;SDS011;40360;52.992;6.796;2022-07-29T15:06:15;5.63;;;2.75;;
54125;SDS011;40360;52.992;6.796;2022-07-29T15:08:41;6.22;;;2.38;;
54125;SDS011;40360;52.992;6.796;2022-07-29T15:11:07;5.50;;;2.63;;
54125;SDS011;40360;52.992;6.796;2022-07-29T15:13:33;6.88;;;2.40;;
54125;SDS011;40360;52.992;6.796;2022-07-29T15:15:59;7.10;;;3.10;;
54125;SDS011;40360;52.992;6.796;2022-07-29T15:18:25;8.88;;;2.90;;
54125;SDS011;40360;52.992;6.796;2022-07-29T15:20:50;8.38;;;3.13;;
54125;SDS011;40360;52.992;6.796;2022-07-29T15:23:16;9.38;;;2.47;;
54125;SDS011;40360;52.992;6.796;2022-07-29T15:25:42;4.80;;;2.15;;
54125;SDS011;40360;52.992;6.796;2022-07-29T15:28:07;5.15;;;2.33;;
54125;SDS011;40360;52.992;6.796;2022-07-29T15:30:33;8.02;;;2.97;;
54125;SDS011;40360;52.992;6.796;2022-07-29T15:33:06;4.95;;;2.38;;
54125;SDS011;40360;52.992;6.796;2022-07-29T15:35:33;5.70;;;2.45;;
54125;SDS011;40360;52.992;6.796;2022-07-29T15:37:59;7.60;;;3.03;;
54125;SDS011;40360;52.992;6.796;2022-07-29T15:40:25;5.32;;;2.35;;
54125;SDS011;40360;52.992;6.796;2022-07-29T15:42:51;5.38;;;1.95;;
54125;SDS011;40360;52.992;6.796;2022-07-29T15:45:16;7.38;;;2.58;;
54125;SDS011;40360;52.992;6.796;2022-07-29T15:47:42;6.97;;;2.00;;
54125;SDS011;40360;52.992;6.796;2022-07-29T15:50:08;4.13;;;1.52;;
54125;SDS011;40360;52.992;6.796;2022-07-29T15:52:38;1.70;;;1.10;;
54125;SDS011;40360;52.992;6.796;2022-07-29T15:55:07;2.55;;;1.33;;